sensor_id;sensor_type;location;lat;lon;timestamp;pressure;altitude;pressure_sealevel;temperature;humidity
78892;BME280;68368;51.728;5.248;2024-02-26T01:55:26;99914.84;;;4.81;97.08
78892;BME280;68368;51.728;5.248;2024-02-26T01:57:29;99917.64;;;4.80;97.53
78892;BME280;68368;51.728;5.248;2024-02-26T01:59:33;99920.83;;;4.78;97.71
78892;BME280;68368;51.728;5.248;2024-02-26T02:01:38;99924.33;;;4.77;97.97
78892;BME280;68368;51.728;5.248;2024-02-26T02:03:46;99919.41;;;4.76;97.95
78892;BME280;68368;51.728;5.248;2024-02-26T02:05:51;99913.27;;;4.74;98.24
78892;BME280;68368;51.728;5.248;2024-02-26T02:07:55;99921.16;;;4.73;98.51
78892;BME280;68368;51.728;5.248;2024-02-26T02:09:58;99924.35;;;4.72;98.95
78892;BME280;68368;51.728;5.248;2024-02-26T02:12:01;99923.30;;;4.69;99.16
78892;BME280;68368;51.728;5.248;2024-02-26T02:14:06;99929.79;;;4.65;99.00
78892;BME280;68368;51.728;5.248;2024-02-26T02:16:09;99930.68;;;4.63;99.42
78892;BME280;68368;51.728;5.248;2024-02-26T02:18:13;99934.02;;;4.61;99.55
78892;BME280;68368;51.728;5.248;2024-02-26T02:20:18;99925.75;;;4.59;99.35
78892;BME280;68368;51.728;5.248;2024-02-26T02:22:21;99924.18;;;4.57;99.38
78892;BME280;68368;51.728;5.248;2024-02-26T02:24:25;99926.45;;;4.57;99.91
78892;BME280;68368;51.728;5.248;2024-02-26T02:26:28;99921.89;;;4.56;99.86
78892;BME280;68368;51.728;5.248;2024-02-26T02:28:31;99927.33;;;4.56;99.73
78892;BME280;68368;51.728;5.248;2024-02-26T02:30:35;99929.63;;;4.56;99.67
78892;BME280;68368;51.728;5.248;2024-02-26T02:32:43;99924.54;;;4.54;99.94
78892;BME280;68368;51.728;5.248;2024-02-26T02:34:47;99922.25;;;4.54;99.99
78892;BME280;68368;51.728;5.248;2024-02-26T02:36:52;99925.23;;;4.53;99.98
78892;BME280;68368;51.728;5.248;2024-02-26T02:38:55;99927.52;;;4.52;99.99
78892;BME280;68368;51.728;5.248;2024-02-26T02:40:59;99932.44;;;4.52;100.00
78892;BME280;68368;51.728;5.248;2024-02-26T02:43:02;99933.15;;;4.51;100.00
78892;BME280;68368;51.728;5.248;2024-02-26T02:45:07;99934.02;;;4.51;100.00
78892;BME280;68368;51.728;5.248;2024-02-26T02:47:10;99937.02;;;4.51;100.00
78892;BME280;68368;51.728;5.248;2024-02-26T02:49:13;99938.60;;;4.51;100.00
78892;BME280;68368;51.728;5.248;2024-02-26T02:51:16;99947.20;;;4.52;100.00
78892;BME280;68368;51.728;5.248;2024-02-26T02:53:19;99945.79;;;4.52;100.00
78892;BME280;68368;51.728;5.248;2024-02-26T02:55:22;99947.73;;;4.52;100.00
78892;BME280;68368;51.728;5.248;2024-02-26T02:57:27;99942.98;;;4.52;100.00
78892;BME280;68368;51.728;5.248;2024-02-26T02:59:30;99945.98;;;4.51;100.00
78892;BME280;68368;51.728;5.248;2024-02-26T03:01:33;99946.31;;;4.50;100.00
78892;BME280;68368;51.728;5.248;2024-02-26T03:03:36;99943.15;;;4.49;100.00
78892;BME280;68368;51.728;5.248;2024-02-26T03:05:39;99941.74;;;4.48;100.00
78892;BME280;68368;51.728;5.248;2024-02-26T03:07:42;99936.48;;;4.46;100.00
78892;BME280;68368;51.728;5.248;2024-02-26T03:09:45;99941.04;;;4.46;100.00
78892;BME280;68368;51.728;5.248;2024-02-26T03:11:48;99934.73;;;4.44;100.00
78892;BME280;68368;51.728;5.248;2024-02-26T03:13:52;99936.30;;;4.43;100.00
78892;BME280;68368;51.728;5.248;2024-02-26T03:15:56;99938.94;;;4.42;100.00
78892;BME280;68368;51.728;5.248;2024-02-26T03:17:59;99941.56;;;4.41;100.00
78892;BME280;68368;51.728;5.248;2024-02-26T03:20:05;99942.80;;;4.39;100.00
78892;BME280;68368;51.728;5.248;2024-02-26T03:22:09;99944.20;;;4.37;100.00
78892;BME280;68368;51.728;5.248;2024-02-26T03:24:12;99940.52;;;4.36;100.00
78892;BME280;68368;51.728;5.248;2024-02-26T03:26:15;99945.97;;;4.35;100.00
78892;BME280;68368;51.728;5.248;2024-02-26T03:28:21;99944.90;;;4.33;100.00
78892;BME280;68368;51.728;5.248;2024-02-26T03:30:24;99942.45;;;4.32;100.00
78892;BME280;68368;51.728;5.248;2024-02-26T03:32:27;99945.61;;;4.31;100.00
78892;BME280;68368;51.728;5.248;2024-02-26T03:34:30;99949.65;;;4.29;100.00
78892;BME280;68368;51.728;5.248;2024-02-26T03:36:34;99950.17;;;4.29;100.00
78892;BME280;68368;51.728;5.248;2024-02-26T03:38:37;99951.77;;;4.28;100.00
78892;BME280;68368;51.728;5.248;2024-02-26T03:40:43;99951.23;;;4.27;100.00
78892;BME280;68368;51.728;5.248;2024-02-26T03:42:46;99949.64;;;4.26;100.00
78892;BME280;68368;51.728;5.248;2024-02-26T03:44:49;99948.77;;;4.24;100.00
78892;BME280;68368;51.728;5.248;2024-02-26T03:46:52;99951.22;;;4.24;100.00
78892;BME280;68368;51.728;5.248;2024-02-26T03:48:56;99952.27;;;4.23;100.00
78892;BME280;68368;51.728;5.248;2024-02-26T03:50:58;99951.04;;;4.21;100.00
78892;BME280;68368;51.728;5.248;2024-02-26T03:53:01;99951.91;;;4.21;100.00
78892;BME280;68368;51.728;5.248;2024-02-26T03:55:09;99952.27;;;4.20;100.00
78892;BME280;68368;51.728;5.248;2024-02-26T03:57:14;99954.02;;;4.20;100.00
78892;BME280;68368;51.728;5.248;2024-02-26T03:59:17;99949.27;;;4.19;100.00
78892;BME280;68368;51.728;5.248;2024-02-26T04:01:21;99950.69;;;4.19;100.00
78892;BME280;68368;51.728;5.248;2024-02-26T04:03:27;99949.98;;;4.18;100.00
78892;BME280;68368;51.728;5.248;2024-02-26T04:05:34;99949.27;;;4.18;100.00
78892;BME280;68368;51.728;5.248;2024-02-26T04:07:38;99950.16;;;4.17;100.00
78892;BME280;68368;51.728;5.248;2024-02-26T04:09:54;99955.43;;;4.17;100.00
78892;BME280;68368;51.728;5.248;2024-02-26T04:11:58;99957.18;;;4.16;100.00
78892;BME280;68368;51.728;5.248;2024-02-26T04:14:04;99956.13;;;4.16;100.00
78892;BME280;68368;51.728;5.248;2024-02-26T04:16:08;99951.73;;;4.16;100.00
78892;BME280;68368;51.728;5.248;2024-02-26T07:24:32;100147.59;;;4.15;100.00
78892;BME280;68368;51.728;5.248;2024-02-26T07:26:38;100152.84;;;4.15;100.00
78892;BME280;68368;51.728;5.248;2024-02-26T07:28:44;100151.61;;;4.16;100.00
78892;BME280;68368;51.728;5.248;2024-02-26T10:08:50;100365.88;;;4.86;100.00
78892;BME280;68368;51.728;5.248;2024-02-26T10:10:55;100368.88;;;4.87;100.00
78892;BME280;68368;51.728;5.248;2024-02-26T10:13:00;100376.98;;;4.88;100.00
78892;BME280;68368;51.728;5.248;2024-02-26T10:15:05;100374.34;;;4.90;100.00
78892;BME280;68368;51.728;5.248;2024-02-26T10:17:09;100377.70;;;4.91;100.00
78892;BME280;68368;51.728;5.248;2024-02-26T10:19:25;100379.64;;;4.92;100.00
78892;BME280;68368;51.728;5.248;2024-02-26T10:21:29;100387.02;;;4.93;100.00
78892;BME280;68368;51.728;5.248;2024-02-26T10:23:33;100388.42;;;4.93;100.00
78892;BME280;68368;51.728;5.248;2024-02-26T10:25:37;100389.14;;;4.92;100.00
78892;BME280;68368;51.728;5.248;2024-02-26T10:27:55;100388.25;;;4.93;100.00
78892;BME280;68368;51.728;5.248;2024-02-26T10:30:04;100399.31;;;4.91;100.00
78892;BME280;68368;51.728;5.248;2024-02-26T10:32:09;100400.55;;;4.90;100.00
78892;BME280;68368;51.728;5.248;2024-02-26T10:34:14;100405.66;;;4.92;100.00
78892;BME280;68368;51.728;5.248;2024-02-26T10:36:17;100405.67;;;4.92;100.00
78892;BME280;68368;51.728;5.248;2024-02-26T10:38:26;100412.88;;;4.94;100.00
78892;BME280;68368;51.728;5.248;2024-02-26T10:40:32;100417.11;;;4.94;100.00
78892;BME280;68368;51.728;5.248;2024-02-26T10:42:35;100415.16;;;4.94;100.00
78892;BME280;68368;51.728;5.248;2024-02-26T10:44:40;100422.02;;;4.93;100.00
78892;BME280;68368;51.728;5.248;2024-02-26T10:46:44;100425.20;;;4.93;100.00
78892;BME280;68368;51.728;5.248;2024-02-26T10:48:54;100425.89;;;4.93;100.00
78892;BME280;68368;51.728;5.248;2024-02-26T10:50:57;100434.36;;;4.95;100.00
78892;BME280;68368;51.728;5.248;2024-02-26T10:53:01;100436.48;;;4.96;100.00
78892;BME280;68368;51.728;5.248;2024-02-26T10:55:07;100439.82;;;4.96;100.00
78892;BME280;68368;51.728;5.248;2024-02-26T10:57:10;100443.15;;;4.96;100.00
78892;BME280;68368;51.728;5.248;2024-02-26T10:59:14;100443.16;;;4.97;100.00
78892;BME280;68368;51.728;5.248;2024-02-26T11:01:18;100442.46;;;4.98;100.00
78892;BME280;68368;51.728;5.248;2024-02-26T11:03:24;100452.14;;;4.98;100.00
78892;BME280;68368;51.728;5.248;2024-02-26T11:05:29;100456.88;;;4.96;100.00
78892;BME280;68368;51.728;5.248;2024-02-26T11:07:33;100459.16;;;4.96;100.00
78892;BME280;68368;51.728;5.248;2024-02-26T11:09:37;100461.63;;;4.96;100.00
78892;BME280;68368;51.728;5.248;2024-02-26T11:11:43;100460.41;;;4.97;100.00
78892;BME280;68368;51.728;5.248;2024-02-26T11:13:49;100469.39;;;4.97;100.00
78892;BME280;68368;51.728;5.248;2024-02-26T11:15:56;100474.48;;;4.98;100.00
78892;BME280;68368;51.728;5.248;2024-02-26T11:18:03;100472.90;;;4.99;100.00
78892;BME280;68368;51.728;5.248;2024-02-26T11:20:11;100479.95;;;5.00;100.00
78892;BME280;68368;51.728;5.248;2024-02-26T11:22:17;100484.52;;;5.02;100.00
78892;BME280;68368;51.728;5.248;2024-02-26T11:24:21;100480.85;;;5.04;100.00
78892;BME280;68368;51.728;5.248;2024-02-26T11:26:27;100480.50;;;5.05;100.00
78892;BME280;68368;51.728;5.248;2024-02-26T11:28:36;100487.36;;;5.05;100.00
78892;BME280;68368;51.728;5.248;2024-02-26T11:30:44;100485.96;;;5.06;100.00
78892;BME280;68368;51.728;5.248;2024-02-26T11:32:51;100489.85;;;5.08;100.00
78892;BME280;68368;51.728;5.248;2024-02-26T11:34:58;100488.45;;;5.08;100.00
78892;BME280;68368;51.728;5.248;2024-02-26T11:37:11;100494.07;;;5.08;100.00
78892;BME280;68368;51.728;5.248;2024-02-26T11:39:15;100491.27;;;5.09;100.00
78892;BME280;68368;51.728;5.248;2024-02-26T11:41:19;100490.21;;;5.10;100.00
78892;BME280;68368;51.728;5.248;2024-02-26T11:43:51;100490.40;;;5.12;100.00
78892;BME280;68368;51.728;5.248;2024-02-26T11:45:55;100493.77;;;5.15;100.00
78892;BME280;68368;51.728;5.248;2024-02-26T11:47:58;100497.64;;;5.18;100.00
78892;BME280;68368;51.728;5.248;2024-02-26T11:50:36;100494.49;;;5.20;100.00
78892;BME280;68368;51.728;5.248;2024-02-26T11:52:39;100496.63;;;5.21;100.00
78892;BME280;68368;51.728;5.248;2024-02-26T11:54:47;100499.79;;;5.21;100.00
78892;BME280;68368;51.728;5.248;2024-02-26T11:56:51;100497.50;;;5.22;100.00
